Time;durP1;ratioP1;P1;durP2;ratioP2;P2;SDS_P1;SDS_P2;PMS_P1;PMS_P2;Temp;Humidity;BMP_temperature;BMP_pressure;BME280_temperature;BME280_humidity;BME280_pressure;Samples;Min_cycle;Max_cycle;Signal;HPM_P1;HPM_P2
2023/06/28 00:01:37;;;;;;;5.55;2.00;;;;;;;20.67;49.71;99046.31;4482678;32;34863;-91
2023/06/28 00:04:05;;;;;;;5.28;2.78;;;;;;;20.63;49.91;99052.59;4482165;32;34118;-83
2023/06/28 00:06:33;;;;;;;5.22;2.12;;;;;;;20.71;49.73;99045.31;4482416;32;34711;-83
2023/06/28 00:09:00;;;;;;;5.45;2.08;;;;;;;20.72;49.67;99060.25;4482431;32;33136;-83
2023/06/28 00:11:28;;;;;;;7.32;2.20;;;;;;;20.67;50.03;99056.00;4490387;31;35145;-91
2023/06/28 00:13:55;;;;;;;5.80;1.90;;;;;;;20.64;50.18;99059.59;4498303;31;33904;-91
2023/06/28 00:16:23;;;;;;;6.78;2.30;;;;;;;20.73;49.94;99051.41;4497859;31;34421;-89
2023/06/28 00:18:51;;;;;;;5.72;2.58;;;;;;;20.67;49.88;99053.38;4498366;31;33629;-83
2023/06/28 00:21:19;;;;;;;6.35;2.08;;;;;;;20.55;49.98;99046.69;4500314;31;33933;-83
2023/06/28 00:23:46;;;;;;;8.18;2.35;;;;;;;20.46;50.23;99060.12;4492781;31;33762;-83
2023/06/28 00:26:14;;;;;;;5.22;2.22;;;;;;;20.71;49.59;99047.09;4484078;32;34845;-89
2023/06/28 00:28:41;;;;;;;4.68;2.20;;;;;;;20.63;49.69;99044.69;4482898;32;33144;-90
2023/06/28 00:31:09;;;;;;;6.05;2.15;;;;;;;20.53;50.06;99045.88;4484029;32;34862;-83
2023/06/28 00:33:37;;;;;;;6.30;1.92;;;;;;;20.44;50.08;99031.19;4489694;31;34291;-91
2023/06/28 00:36:05;;;;;;;5.75;2.15;;;;;;;20.35;50.44;99034.94;4499977;31;34886;-85
2023/06/28 00:38:34;;;;;;;6.05;1.98;;;;;;;20.28;50.93;99040.44;4498632;31;32466;-83
2023/06/28 00:41:03;;;;;;;5.32;2.10;;;;;;;20.30;50.50;99034.19;4499685;31;34002;-84
2023/06/28 00:43:32;;;;;;;5.45;2.08;;;;;;;20.25;50.10;99041.37;4498512;31;33184;-88
2023/06/28 00:46:00;;;;;;;4.47;2.00;;;;;;;20.25;50.07;99046.66;4499671;31;34000;-86
2023/06/28 00:48:27;;;;;;;6.55;1.98;;;;;;;20.40;50.23;99051.47;4493083;31;33043;-83
2023/06/28 00:50:55;;;;;;;5.07;2.00;;;;;;;19.91;51.04;99047.56;4482974;32;33882;-91
2023/06/28 00:53:23;;;;;;;5.12;2.72;;;;;;;19.98;51.42;99042.16;4483102;32;34892;-86
2023/06/28 00:55:50;;;;;;;7.60;2.62;;;;;;;20.08;51.17;99046.28;4491820;31;33894;-83
2023/06/28 00:58:18;;;;;;;5.85;2.30;;;;;;;20.05;51.29;99034.06;4498565;31;32982;-82
2023/06/28 01:00:46;;;;;;;6.90;2.97;;;;;;;20.12;51.43;99034.75;4498543;31;33459;-84
2023/06/28 01:03:18;;;;;;;6.12;2.65;;;;;;;19.94;51.89;99038.75;4498575;31;33980;-89
2023/06/28 01:05:48;;;;;;;7.50;2.60;;;;;;;20.00;51.83;99037.69;4490930;31;32276;-82
2023/06/28 01:08:16;;;;;;;5.85;2.58;;;;;;;20.06;52.18;99050.69;4482624;32;34361;-86
2023/06/28 01:10:44;;;;;;;6.07;2.60;;;;;;;19.96;52.28;99049.22;4482994;32;33985;-92
2023/06/28 01:13:12;;;;;;;6.78;2.83;;;;;;;19.95;52.30;99037.84;4482875;32;34024;-89
2023/06/28 01:15:40;;;;;;;5.82;2.53;;;;;;;19.93;52.26;99043.16;4482309;32;34080;-90
2023/06/28 01:18:11;;;;;;;5.37;2.85;;;;;;;19.80;53.31;99052.25;4483739;32;33737;-92
2023/06/28 01:20:39;;;;;;;5.55;2.70;;;;;;;19.96;52.77;99057.13;4489890;31;33458;-88
2023/06/28 01:23:07;;;;;;;7.53;3.50;;;;;;;19.92;52.80;99058.97;4499437;31;34311;-82
2023/06/28 01:25:36;;;;;;;8.40;2.60;;;;;;;19.79;53.68;99058.44;4498606;31;34063;-84
2023/06/28 01:28:03;;;;;;;6.47;2.95;;;;;;;19.91;53.30;99054.59;4498344;31;34079;-88
2023/06/28 01:30:36;;;;;;;6.60;2.50;;;;;;;19.92;53.10;99056.31;4490797;31;34009;-82
2023/06/28 01:33:04;;;;;;;5.72;3.08;;;;;;;20.02;52.67;99043.81;4483341;31;33884;-83
2023/06/28 01:35:32;;;;;;;7.72;2.83;;;;;;;19.78;53.40;99059.34;4482579;32;33742;-91
2023/06/28 01:38:00;;;;;;;6.95;3.25;;;;;;;19.96;52.89;99057.97;4483690;32;33482;-87
2023/06/28 01:40:27;;;;;;;7.05;3.33;;;;;;;19.97;51.90;99058.88;4482347;32;33957;-87
2023/06/28 01:42:55;;;;;;;10.60;3.40;;;;;;;19.53;52.04;99055.59;4483845;32;33732;-90
2023/06/28 01:45:23;;;;;;;6.95;3.33;;;;;;;19.73;50.55;99058.59;4482753;31;34519;-90
2023/06/28 01:47:50;;;;;;;6.75;3.22;;;;;;;19.41;51.80;99057.63;4483957;32;32867;-91
2023/06/28 01:50:19;;;;;;;6.75;2.95;;;;;;;19.00;52.48;99052.50;4482243;32;34859;-83
2023/06/28 01:52:46;;;;;;;7.50;3.08;;;;;;;19.47;51.90;99055.72;4483568;32;33731;-83
2023/06/28 01:55:14;;;;;;;9.73;2.70;;;;;;;19.49;51.89;99053.94;4495749;31;33883;-83
2023/06/28 01:57:41;;;;;;;9.00;3.12;;;;;;;19.36;51.58;99050.75;4498128;31;33136;-91
2023/06/28 02:00:10;;;;;;;7.87;3.03;;;;;;;19.43;51.27;99055.81;4499133;31;34826;-83
2023/06/28 02:02:43;;;;;;;7.87;2.97;;;;;;;19.12;52.25;99050.44;4499347;31;35139;-83
2023/06/28 02:05:11;;;;;;;6.95;2.62;;;;;;;19.25;51.72;99044.91;4497908;31;33834;-92
2023/06/28 02:07:40;;;;;;;7.82;3.15;;;;;;;19.28;51.49;99048.31;4498376;31;33331;-90
2023/06/28 02:10:09;;;;;;;6.10;3.08;;;;;;;19.25;51.59;99045.75;4485985;31;34038;-90
2023/06/28 02:12:37;;;;;;;7.95;2.78;;;;;;;18.85;52.34;99045.81;4481993;32;34154;-83
2023/06/28 02:15:06;;;;;;;7.22;2.78;;;;;;;19.11;51.88;99037.34;4469398;32;32753;-83
2023/06/28 02:17:36;;;;;;;5.45;2.50;;;;;;;19.25;51.82;99026.50;4483602;32;33480;-90
2023/06/28 02:20:06;;;;;;;7.62;3.10;;;;;;;19.11;52.41;99032.09;4495403;31;33541;-82
2023/06/28 02:22:34;;;;;;;6.03;2.65;;;;;;;19.14;51.62;99043.38;4499302;31;33808;-82
2023/06/28 02:25:02;;;;;;;7.50;2.65;;;;;;;19.02;52.65;99037.56;4499276;31;34047;-91
2023/06/28 02:27:30;;;;;;;7.47;2.72;;;;;;;19.17;52.18;99037.19;4497725;31;34166;-89
2023/06/28 02:29:58;;;;;;;7.68;2.87;;;;;;;19.06;52.11;99032.19;4499133;31;33955;-83
2023/06/28 02:32:30;;;;;;;7.25;2.72;;;;;;;19.17;51.82;99037.19;4499277;31;34122;-84
2023/06/28 02:34:58;;;;;;;8.60;3.22;;;;;;;18.86;52.35;99031.78;4485674;31;34342;-91
2023/06/28 02:37:25;;;;;;;8.88;3.00;;;;;;;18.84;52.37;99031.84;4483454;32;33322;-84
2023/06/28 02:39:53;;;;;;;7.87;2.78;;;;;;;19.08;52.08;99032.16;4483297;32;33694;-83
2023/06/28 02:42:20;;;;;;;6.68;2.83;;;;;;;19.22;51.71;99034.47;4483852;31;34592;-87
2023/06/28 02:44:49;;;;;;;6.60;2.92;;;;;;;19.07;51.77;99030.44;4483143;31;34605;-83
2023/06/28 02:47:16;;;;;;;5.40;2.58;;;;;;;19.20;51.36;99023.97;4483832;31;34159;-88
2023/06/28 02:49:44;;;;;;;7.75;2.87;;;;;;;19.36;51.08;99025.34;4482953;31;33857;-83
2023/06/28 02:52:12;;;;;;;7.57;2.70;;;;;;;19.20;51.07;99027.44;4483624;31;33987;-83
2023/06/28 02:54:39;;;;;;;5.85;2.85;;;;;;;19.11;51.21;99040.81;4485629;31;34556;-83
2023/06/28 02:57:09;;;;;;;6.43;2.65;;;;;;;19.21;50.91;99028.34;4488811;31;33256;-83
2023/06/28 02:59:37;;;;;;;4.78;2.53;;;;;;;19.13;50.89;99040.78;4492479;31;33347;-82
2023/06/28 03:02:05;;;;;;;6.28;2.67;;;;;;;19.18;50.33;99031.91;4491908;31;34570;-90
2023/06/28 03:04:39;;;;;;;7.05;3.03;;;;;;;19.05;51.22;99037.47;4487920;31;33946;-87
2023/06/28 03:07:14;;;;;;;7.40;2.50;;;;;;;19.29;50.31;99030.78;4491912;31;34803;-86
2023/06/28 03:09:42;;;;;;;6.97;2.80;;;;;;;19.32;50.50;99039.44;4489978;31;34553;-83
2023/06/28 03:12:10;;;;;;;6.35;2.60;;;;;;;19.31;50.51;99039.47;4494408;31;34293;-83
2023/06/28 03:14:38;;;;;;;8.75;2.92;;;;;;;19.34;50.56;99042.03;4479396;31;34008;-88
2023/06/28 03:17:05;;;;;;;6.35;2.83;;;;;;;19.30;50.48;99038.63;4483287;31;32684;-84
2023/06/28 03:19:34;;;;;;;5.97;2.70;;;;;;;18.94;51.22;99042.97;4478495;31;33216;-89
2023/06/28 03:22:03;;;;;;;6.90;2.95;;;;;;;18.81;51.94;99049.41;4490142;31;34192;-84
2023/06/28 03:24:30;;;;;;;6.87;2.45;;;;;;;18.73;52.63;99041.72;4498865;31;33932;-84
2023/06/28 03:26:58;;;;;;;5.18;2.47;;;;;;;18.64;51.99;99050.63;4492159;31;33669;-91
2023/06/28 03:29:26;;;;;;;6.05;3.10;;;;;;;18.34;52.18;99049.53;4498460;31;34075;-84
2023/06/28 03:31:55;;;;;;;8.27;2.72;;;;;;;18.66;51.65;99047.97;4498641;31;35599;-83
2023/06/28 03:34:23;;;;;;;6.65;2.70;;;;;;;18.87;51.26;99039.66;4498658;31;34071;-84
2023/06/28 03:36:50;;;;;;;5.82;2.53;;;;;;;19.07;51.05;99040.94;4487770;31;33404;-84
2023/06/28 03:39:31;;;;;;;7.55;2.60;;;;;;;19.19;51.26;99035.38;4482850;32;34053;-85
2023/06/28 03:41:58;;;;;;;7.85;2.65;;;;;;;18.99;51.90;99037.62;4482707;32;34987;-84
2023/06/28 03:44:26;;;;;;;7.20;2.67;;;;;;;19.20;50.17;99031.84;4482873;32;34683;-89
2023/06/28 03:46:54;;;;;;;7.50;2.50;;;;;;;19.10;50.51;99036.47;4484665;31;33262;-84
2023/06/28 03:49:21;;;;;;;8.48;2.83;;;;;;;19.15;50.19;99033.72;4481456;32;33774;-83
2023/06/28 03:51:49;;;;;;;6.43;2.50;;;;;;;18.92;50.72;99031.66;4481697;32;32965;-87
2023/06/28 03:54:16;;;;;;;7.07;2.92;;;;;;;19.13;50.17;99046.03;4481701;32;33886;-88
2023/06/28 03:56:49;;;;;;;9.50;2.78;;;;;;;19.28;50.33;99040.44;4495240;31;34204;-85
2023/06/28 03:59:17;;;;;;;5.68;2.35;;;;;;;19.31;51.05;99034.22;4497436;31;33866;-85
2023/06/28 04:01:44;;;;;;;5.53;2.50;;;;;;;19.51;50.66;99033.72;4497287;31;35173;-83
2023/06/28 04:04:16;;;;;;;6.78;2.78;;;;;;;19.55;50.39;99032.75;4496762;31;34770;-83
2023/06/28 04:06:45;;;;;;;5.65;2.30;;;;;;;19.54;50.81;99037.12;4497045;31;33474;-83
2023/06/28 04:09:12;;;;;;;8.02;2.53;;;;;;;19.73;50.86;99041.94;4498148;31;33517;-85
2023/06/28 04:11:40;;;;;;;7.03;2.45;;;;;;;19.54;51.03;99044.16;4498115;31;34162;-87
2023/06/28 04:14:07;;;;;;;9.43;2.92;;;;;;;19.63;50.63;99041.34;4485925;31;34163;-83
2023/06/28 04:16:35;;;;;;;6.10;2.70;;;;;;;19.76;51.22;99047.13;4495180;31;33787;-89
2023/06/28 04:19:04;;;;;;;10.02;2.67;;;;;;;19.58;51.75;99051.06;4494299;31;34808;-86
2023/06/28 04:21:33;;;;;;;6.35;2.80;;;;;;;19.54;51.03;99054.66;4498073;31;34868;-83
2023/06/28 04:24:00;;;;;;;5.62;2.62;;;;;;;19.38;51.65;99056.81;4498018;31;33779;-85
2023/06/28 04:26:28;;;;;;;6.18;2.65;;;;;;;19.19;53.37;99067.78;4497838;31;33214;-82
2023/06/28 04:28:55;;;;;;;8.48;2.80;;;;;;;18.99;53.08;99072.66;4482310;32;33526;-89
2023/06/28 04:31:24;;;;;;;5.47;2.67;;;;;;;18.86;53.45;99063.31;4480917;32;33833;-83
2023/06/28 04:33:55;;;;;;;6.75;2.72;;;;;;;18.61;54.26;99073.47;4481863;31;33909;-83
2023/06/28 04:36:25;;;;;;;6.60;3.20;;;;;;;18.92;54.16;99057.91;4488934;31;33719;-87
2023/06/28 04:38:54;;;;;;;9.27;3.05;;;;;;;19.00;53.89;99065.63;4495016;31;33696;-84
2023/06/28 04:41:28;;;;;;;5.55;2.70;;;;;;;19.00;53.88;99068.25;4483624;31;34383;-84
2023/06/28 04:43:57;;;;;;;5.20;2.75;;;;;;;18.90;54.45;99071.09;4497946;31;33944;-89
2023/06/28 04:46:28;;;;;;;6.97;2.62;;;;;;;19.13;54.01;99074.94;4496046;31;34135;-85
2023/06/28 04:48:59;;;;;;;6.82;3.37;;;;;;;19.10;54.64;99075.03;4496402;31;32922;-90
2023/06/28 04:51:28;;;;;;;6.37;2.92;;;;;;;19.05;55.16;99077.75;4496152;31;34199;-83
2023/06/28 04:53:55;;;;;;;9.85;3.20;;;;;;;18.96;54.81;99076.19;4496945;31;35096;-85
2023/06/28 04:56:24;;;;;;;6.20;2.80;;;;;;;19.28;54.67;99079.88;4498007;31;33176;-84
2023/06/28 04:58:51;;;;;;;7.28;3.20;;;;;;;19.29;54.95;99078.09;4497696;31;33527;-86
2023/06/28 05:01:19;;;;;;;6.97;3.20;;;;;;;19.33;55.23;99071.84;4488263;31;35071;-84
2023/06/28 05:03:47;;;;;;;9.50;3.45;;;;;;;19.54;54.79;99073.94;4481989;32;34215;-85
2023/06/28 05:06:16;;;;;;;8.75;3.42;;;;;;;19.25;54.77;99082.56;4482858;32;34531;-85
2023/06/28 05:08:43;;;;;;;6.03;3.30;;;;;;;19.43;54.29;99082.12;4493167;31;33575;-86
2023/06/28 05:11:11;;;;;;;7.90;2.83;;;;;;;19.45;54.13;99080.28;4499796;31;34250;-85
2023/06/28 05:13:39;;;;;;;7.00;2.75;;;;;;;19.19;55.32;99087.94;4489173;31;33955;-91
2023/06/28 05:16:07;;;;;;;7.40;3.12;;;;;;;19.33;54.95;99085.87;4482649;32;34288;-85
2023/06/28 05:18:34;;;;;;;7.93;3.40;;;;;;;19.46;53.93;99091.66;4482641;31;34762;-92
2023/06/28 05:21:02;;;;;;;8.38;3.05;;;;;;;18.72;56.43;99089.88;4484083;31;34115;-85
2023/06/28 05:23:30;;;;;;;10.20;3.78;;;;;;;19.09;55.27;99091.69;4489367;31;33930;-85
2023/06/28 05:25:57;;;;;;;7.12;3.40;;;;;;;18.88;56.36;99106.16;4500715;31;33263;-90
2023/06/28 05:28:25;;;;;;;6.35;3.00;;;;;;;19.07;55.37;99096.13;4488435;31;33543;-85
2023/06/28 05:30:53;;;;;;;8.25;3.42;;;;;;;18.94;56.32;99100.75;4483720;32;34795;-86
2023/06/28 05:33:21;;;;;;;6.05;3.35;;;;;;;18.51;56.73;99098.16;4485317;32;33882;-92
2023/06/28 05:35:49;;;;;;;8.68;3.30;;;;;;;18.84;56.14;99097.50;4487468;32;32894;-90
2023/06/28 05:38:17;;;;;;;7.20;2.83;;;;;;;19.03;56.13;99097.09;4489425;32;33871;-93
2023/06/28 05:40:44;;;;;;;6.97;3.35;;;;;;;19.16;55.36;99085.38;4484478;32;35224;-85
2023/06/28 05:43:11;;;;;;;6.68;3.60;;;;;;;19.39;55.32;99088.31;4484262;31;34759;-83
2023/06/28 05:45:39;;;;;;;8.00;3.33;;;;;;;19.05;56.57;99095.28;4486694;32;33487;-84
2023/06/28 05:48:07;;;;;;;6.15;3.28;;;;;;;18.99;56.29;99084.94;4486218;32;34679;-95
2023/06/28 05:50:34;;;;;;;8.63;3.30;;;;;;;18.95;56.66;99098.12;4485015;31;33798;-87
2023/06/28 05:53:06;;;;;;;7.15;2.80;;;;;;;19.11;54.86;99087.25;4487142;32;34271;-83
2023/06/28 05:55:34;;;;;;;6.78;3.20;;;;;;;19.01;54.86;99096.25;4485093;32;33923;-85
2023/06/28 05:58:01;;;;;;;7.72;2.85;;;;;;;19.33;54.82;99093.75;4499105;31;33218;-96
2023/06/28 06:00:29;;;;;;;8.48;3.05;;;;;;;19.36;53.95;99098.94;4501501;31;35333;-88
2023/06/28 06:02:57;;;;;;;5.65;3.12;;;;;;;19.38;53.91;99099.75;4500093;31;34068;-87
2023/06/28 06:05:24;;;;;;;7.28;2.87;;;;;;;19.22;54.09;99098.38;4499698;31;33284;-87
2023/06/28 06:07:52;;;;;;;6.07;2.70;;;;;;;19.16;54.03;99103.78;4501756;31;34211;-82
2023/06/28 06:10:20;;;;;;;6.37;2.60;;;;;;;19.06;54.92;99097.88;4501035;31;34019;-83
2023/06/28 06:12:47;;;;;;;8.18;2.65;;;;;;;18.98;53.76;99114.69;4501248;31;33542;-84
2023/06/28 06:15:15;;;;;;;10.85;2.65;;;;;;;19.19;53.62;99114.22;4501245;31;34865;-89
2023/06/28 06:17:43;;;;;;;4.10;2.42;;;;;;;18.86;54.09;99121.94;4500715;31;34104;-96
2023/06/28 06:20:10;;;;;;;8.77;2.65;;;;;;;19.36;52.60;99117.34;4501042;31;34803;-88
2023/06/28 06:22:38;;;;;;;7.53;2.67;;;;;;;19.12;53.24;99123.16;4502451;31;34607;-93
2023/06/28 06:25:06;;;;;;;5.15;2.42;;;;;;;19.10;53.06;99131.06;4487946;31;34328;-96
2023/06/28 06:27:34;;;;;;;6.37;2.37;;;;;;;18.86;54.17;99142.97;4482930;32;33539;-95
2023/06/28 06:30:01;;;;;;;4.85;2.05;;;;;;;19.37;51.92;99134.84;4484593;32;34908;-94
2023/06/28 06:32:30;;;;;;;7.70;2.47;;;;;;;18.93;53.36;99143.72;4483630;32;34673;-94
2023/06/28 06:34:57;;;;;;;8.93;2.25;;;;;;;19.65;51.21;99137.69;4498893;31;34101;-85
2023/06/28 06:37:25;;;;;;;5.45;2.40;;;;;;;18.63;53.58;99142.56;4483135;31;33692;-84
2023/06/28 06:39:55;;;;;;;6.60;1.85;;;;;;;19.23;51.87;99134.28;4486309;32;34219;-94
2023/06/28 06:42:23;;;;;;;6.00;2.33;;;;;;;18.62;52.62;99144.31;4491072;32;34345;-96
2023/06/28 06:44:50;;;;;;;5.57;2.10;;;;;;;18.75;53.37;99144.09;4489033;31;33651;-83
2023/06/28 06:47:18;;;;;;;4.55;1.77;;;;;;;18.76;53.29;99154.56;4490745;31;33748;-94
2023/06/28 06:49:45;;;;;;;6.75;1.90;;;;;;;18.54;52.72;99148.00;4499714;31;35320;-87
2023/06/28 06:52:13;;;;;;;5.95;2.25;;;;;;;18.21;54.36;99150.34;4492709;31;33912;-91
2023/06/28 06:54:41;;;;;;;4.87;1.80;;;;;;;18.79;52.60;99153.63;4488906;31;34287;-83
2023/06/28 06:57:08;;;;;;;4.22;1.75;;;;;;;18.37;53.01;99148.31;4490781;31;34609;-84
2023/06/28 06:59:36;;;;;;;4.57;1.75;;;;;;;18.24;54.00;99152.94;4484931;31;34774;-90
2023/06/28 07:02:04;;;;;;;5.22;1.70;;;;;;;18.57;52.94;99150.56;4482480;32;34244;-84
2023/06/28 07:04:32;;;;;;;8.18;1.65;;;;;;;18.95;50.18;99152.44;4482264;32;33535;-90
2023/06/28 07:06:59;;;;;;;3.60;1.42;;;;;;;18.75;52.65;99165.09;4482143;31;33518;-83
2023/06/28 07:09:28;;;;;;;4.40;1.35;;;;;;;19.11;52.33;99161.69;4482968;32;35017;-84
2023/06/28 07:11:56;;;;;;;5.60;1.60;;;;;;;19.06;52.48;99160.94;4483171;32;34023;-84
2023/06/28 07:14:23;;;;;;;4.97;1.50;;;;;;;19.01;52.12;99169.81;4483134;32;33352;-83
2023/06/28 07:16:51;;;;;;;4.37;1.52;;;;;;;19.27;51.33;99175.38;4482744;32;34478;-85
2023/06/28 07:19:18;;;;;;;6.85;1.70;;;;;;;19.21;52.11;99167.63;4496890;31;34631;-90
2023/06/28 07:21:46;;;;;;;2.47;1.00;;;;;;;19.33;52.76;99164.72;4497589;31;33986;-83
2023/06/28 07:24:13;;;;;;;6.20;1.55;;;;;;;19.28;51.34;99161.34;4498757;31;34145;-84
2023/06/28 07:26:41;;;;;;;5.57;1.40;;;;;;;18.99;50.96;99147.97;4497509;31;34580;-83
2023/06/28 07:29:08;;;;;;;6.65;1.60;;;;;;;19.33;51.68;99148.09;4491440;31;34745;-83
2023/06/28 07:31:36;;;;;;;4.95;1.30;;;;;;;19.12;50.18;99165.19;4482487;32;34978;-83
2023/06/28 07:34:06;;;;;;;3.08;1.30;;;;;;;19.38;49.44;99169.87;4483171;32;33700;-88
2023/06/28 07:36:33;;;;;;;7.47;1.40;;;;;;;19.64;49.25;99164.03;4482968;32;35048;-90
2023/06/28 07:39:01;;;;;;;7.05;1.48;;;;;;;19.41;49.61;99165.41;4481731;32;35099;-91
2023/06/28 07:41:28;;;;;;;5.62;1.60;;;;;;;18.71;51.57;99177.41;4482874;32;34062;-84
2023/06/28 07:43:56;;;;;;;4.40;1.70;;;;;;;19.06;51.07;99166.19;4483209;31;33042;-92
2023/06/28 07:46:23;;;;;;;4.45;1.55;;;;;;;19.03;51.14;99178.53;4482674;32;34759;-83
2023/06/28 07:48:51;;;;;;;6.87;1.90;;;;;;;18.77;52.47;99182.56;4490480;31;34190;-92
2023/06/28 07:51:19;;;;;;;7.30;1.90;;;;;;;18.51;51.51;99184.81;4498531;31;34331;-92
2023/06/28 07:53:46;;;;;;;7.00;1.95;;;;;;;18.88;51.01;99177.97;4498540;31;33251;-91
2023/06/28 07:56:14;;;;;;;3.35;1.50;;;;;;;19.01;50.11;99178.56;4498410;31;34761;-89
2023/06/28 07:58:41;;;;;;;11.23;2.08;;;;;;;18.81;51.82;99171.09;4497354;31;33784;-89
2023/06/28 08:01:09;;;;;;;4.70;1.52;;;;;;;19.39;50.69;99172.44;4498868;31;33735;-88
2023/06/28 08:03:37;;;;;;;5.95;1.70;;;;;;;19.16;51.27;99166.84;4496468;31;34235;-85
2023/06/28 08:06:05;;;;;;;5.72;1.70;;;;;;;19.20;51.90;99168.50;4498657;31;34961;-92
2023/06/28 08:08:32;;;;;;;11.15;1.40;;;;;;;19.58;50.23;99174.66;4498727;31;34183;-89
2023/06/28 08:11:00;;;;;;;5.80;1.60;;;;;;;19.16;50.74;99169.47;4495909;31;34053;-89
2023/06/28 08:13:27;;;;;;;4.57;1.58;;;;;;;19.45;49.56;99164.44;4484430;31;32557;-86
2023/06/28 08:15:55;;;;;;;4.80;1.50;;;;;;;19.35;50.81;99162.03;4482248;32;34733;-85
2023/06/28 08:18:23;;;;;;;6.10;1.27;;;;;;;19.28;49.33;99149.94;4483502;31;34179;-91
2023/06/28 08:20:50;;;;;;;6.78;1.48;;;;;;;19.36;50.46;99148.03;4482647;32;34763;-85
2023/06/28 08:23:18;;;;;;;3.72;1.48;;;;;;;19.37;50.15;99142.72;4482448;32;34326;-90
2023/06/28 08:25:46;;;;;;;5.62;1.55;;;;;;;19.30;50.77;99158.66;4482470;32;33635;-84
2023/06/28 08:28:13;;;;;;;7.25;1.70;;;;;;;19.73;49.40;99153.28;4483768;31;33752;-84
2023/06/28 08:30:41;;;;;;;5.87;1.52;;;;;;;20.06;49.01;99148.94;4496902;31;33787;-84
2023/06/28 08:33:09;;;;;;;4.22;1.50;;;;;;;19.87;49.22;99150.31;4494602;31;32850;-85
2023/06/28 08:35:36;;;;;;;4.22;1.62;;;;;;;19.76;51.49;99163.72;4482716;32;33059;-84
2023/06/28 08:38:03;;;;;;;4.40;1.50;;;;;;;19.55;50.27;99158.97;4482157;32;34130;-84
2023/06/28 08:40:32;;;;;;;4.78;1.60;;;;;;;19.86;49.36;99159.97;4482488;32;32560;-88
2023/06/28 08:43:01;;;;;;;6.85;1.90;;;;;;;19.82;50.03;99153.06;4484068;32;34036;-93
2023/06/28 08:45:31;;;;;;;3.97;1.35;;;;;;;20.00;49.64;99153.47;4483351;32;33865;-89
2023/06/28 08:48:00;;;;;;;5.50;1.30;;;;;;;19.92;48.85;99143.16;4484242;32;34070;-85
2023/06/28 08:50:38;;;;;;;4.35;1.42;;;;;;;20.27;47.93;99147.50;4482497;32;33600;-85
2023/06/28 08:53:09;;;;;;;3.25;1.20;;;;;;;19.93;49.52;99145.75;4484076;32;32723;-85
2023/06/28 08:55:37;;;;;;;5.43;1.60;;;;;;;19.60;49.92;99139.53;4483994;32;34898;-85
2023/06/28 08:58:05;;;;;;;3.78;1.20;;;;;;;20.11;48.77;99136.50;4484031;32;34455;-89
2023/06/28 09:00:33;;;;;;;9.75;1.60;;;;;;;20.26;49.46;99139.66;4482148;32;34067;-85
2023/06/28 09:03:01;;;;;;;4.65;1.37;;;;;;;20.14;49.73;99138.19;4484020;32;33118;-92
2023/06/28 09:05:33;;;;;;;5.50;1.58;;;;;;;20.39;48.87;99136.66;4470469;32;34662;-94
2023/06/28 09:08:01;;;;;;;3.17;1.37;;;;;;;19.76;51.16;99131.31;4482945;32;34010;-85
2023/06/28 09:10:31;;;;;;;8.63;2.35;;;;;;;19.67;51.08;99145.56;4483633;32;34219;-85
2023/06/28 09:12:58;;;;;;;7.90;2.10;;;;;;;20.15;51.11;99137.28;4483956;32;34359;-85
2023/06/28 09:15:26;;;;;;;6.30;1.67;;;;;;;20.12;51.04;99140.03;4482994;32;34005;-92
2023/06/28 09:17:53;;;;;;;5.07;1.50;;;;;;;20.05;52.58;99127.94;4483984;32;33700;-93
2023/06/28 09:20:21;;;;;;;4.32;1.50;;;;;;;20.45;48.93;99127.69;4483545;32;34537;-85
2023/06/28 09:22:56;;;;;;;3.45;1.73;;;;;;;20.11;49.63;99125.97;4483995;32;33715;-93
2023/06/28 09:25:29;;;;;;;4.20;1.60;;;;;;;20.26;50.08;99131.75;4484040;32;33637;-86
2023/06/28 09:27:57;;;;;;;4.03;1.37;;;;;;;20.38;48.28;99121.75;4483959;32;34033;-85
2023/06/28 09:30:40;;;;;;;6.57;1.77;;;;;;;19.58;50.88;99127.31;4483634;32;33572;-90
2023/06/28 09:33:08;;;;;;;3.17;1.23;;;;;;;20.29;50.76;99115.88;4483591;32;34059;-93
2023/06/28 09:35:39;;;;;;;4.60;1.50;;;;;;;20.38;51.52;99111.22;4482560;32;34620;-85
2023/06/28 09:38:07;;;;;;;3.90;1.33;;;;;;;20.33;50.25;99110.47;4483968;32;34155;-86
2023/06/28 09:40:35;;;;;;;5.53;1.62;;;;;;;20.32;49.53;99114.03;4482306;32;33904;-89
2023/06/28 09:43:03;;;;;;;9.05;1.60;;;;;;;20.60;49.63;99113.25;4483798;32;33650;-90
2023/06/28 09:45:33;;;;;;;3.42;1.48;;;;;;;20.56;47.21;99103.72;4484368;32;33515;-91
2023/06/28 09:48:02;;;;;;;5.50;1.42;;;;;;;20.77;47.06;99107.53;4484735;32;35042;-95
2023/06/28 09:50:37;;;;;;;3.70;1.55;;;;;;;20.65;47.88;99098.22;4483681;32;34059;-94
2023/06/28 09:53:09;;;;;;;2.97;1.12;;;;;;;20.70;46.65;99101.56;4482871;32;33533;-90
2023/06/28 09:55:38;;;;;;;4.05;1.35;;;;;;;20.94;46.80;99109.63;4483666;32;34723;-86
2023/06/28 09:58:10;;;;;;;4.60;1.10;;;;;;;20.77;46.58;99103.09;4484977;32;33946;-95
2023/06/28 10:00:39;;;;;;;5.05;1.25;;;;;;;20.83;46.22;99113.44;4486078;32;34207;-96
2023/06/28 10:03:12;;;;;;;6.28;1.42;;;;;;;20.71;47.00;99108.53;4492278;32;34330;-93
2023/06/28 10:05:42;;;;;;;7.25;1.05;;;;;;;21.04;46.91;99119.00;4486104;32;33906;-84
2023/06/28 10:08:15;;;;;;;5.45;1.40;;;;;;;21.15;47.11;99119.53;4483359;32;34463;-83
2023/06/28 10:10:44;;;;;;;3.83;1.30;;;;;;;21.22;46.96;99114.94;4483716;32;33929;-84
2023/06/28 10:13:14;;;;;;;4.53;1.45;;;;;;;21.63;45.74;99116.28;4484109;32;33594;-94
2023/06/28 10:15:53;;;;;;;6.87;1.45;;;;;;;21.11;48.45;99126.66;4484763;32;33684;-95
2023/06/28 10:18:22;;;;;;;7.60;1.77;;;;;;;21.17;46.50;99117.69;4470479;32;34485;-96
2023/06/28 10:20:49;;;;;;;3.65;1.05;;;;;;;21.66;46.41;99116.16;4469293;32;32625;-84
2023/06/28 10:23:19;;;;;;;5.85;1.00;;;;;;;21.73;46.36;99115.03;4479745;32;33336;-83
2023/06/28 10:25:47;;;;;;;3.72;1.23;;;;;;;21.51;44.13;99114.03;4483694;32;34622;-92
2023/06/28 10:28:14;;;;;;;3.53;1.30;;;;;;;21.69;44.01;99102.88;4484048;32;34189;-83
2023/06/28 10:30:42;;;;;;;2.65;1.00;;;;;;;22.20;42.80;99098.50;4489817;31;34070;-87
2023/06/28 10:33:11;;;;;;;3.28;1.17;;;;;;;22.56;44.10;99104.25;4499399;31;34439;-96
2023/06/28 10:35:39;;;;;;;3.70;1.12;;;;;;;22.77;43.66;99099.94;4496990;31;34748;-82
2023/06/28 10:38:12;;;;;;;2.72;1.30;;;;;;;22.62;39.91;99085.53;4486305;31;34016;-87
2023/06/28 10:40:45;;;;;;;4.43;1.20;;;;;;;22.87;41.07;99092.50;4488171;31;33924;-95
2023/06/28 10:43:23;;;;;;;4.47;1.10;;;;;;;23.06;41.07;99083.81;4482468;32;34327;-84
2023/06/28 10:45:54;;;;;;;5.25;0.88;;;;;;;23.22;40.43;99080.56;4483353;32;34626;-83
2023/06/28 10:48:23;;;;;;;4.47;1.05;;;;;;;23.38;38.53;99067.59;4482252;32;34219;-82
2023/06/28 10:50:52;;;;;;;2.67;1.00;;;;;;;23.24;40.16;99062.87;4482395;32;34176;-82
2023/06/28 10:53:24;;;;;;;2.12;0.82;;;;;;;23.34;39.75;99066.88;4483831;31;34390;-83
2023/06/28 10:56:13;;;;;;;2.53;0.90;;;;;;;23.72;40.74;99073.25;4498755;31;34843;-84
2023/06/28 10:58:42;;;;;;;3.45;1.10;;;;;;;23.72;39.34;99067.94;4498098;31;34070;-83
2023/06/28 11:01:13;;;;;;;2.28;0.90;;;;;;;23.92;38.86;99071.53;4486440;31;33163;-84
2023/06/28 11:03:45;;;;;;;3.03;1.20;;;;;;;23.35;38.46;99062.44;4498994;31;33611;-85
2023/06/28 11:06:13;;;;;;;4.20;1.00;;;;;;;23.86;39.85;99069.13;4501334;31;33905;-84
2023/06/28 11:08:42;;;;;;;5.00;1.02;;;;;;;23.24;39.09;99071.66;4499321;31;34207;-94
2023/06/28 11:11:30;;;;;;;3.75;1.23;;;;;;;24.05;38.87;99064.75;4500011;31;34689;-96
2023/06/28 11:14:16;;;;;;;2.17;0.95;;;;;;;24.44;37.84;99063.97;4490858;31;34310;-88
2023/06/28 11:16:47;;;;;;;3.28;1.00;;;;;;;23.69;38.40;99077.81;4498742;31;34685;-94
2023/06/28 11:19:16;;;;;;;4.03;1.37;;;;;;;24.10;37.75;99068.09;4500075;31;34171;-83
2023/06/28 11:21:49;;;;;;;4.78;1.05;;;;;;;24.00;38.88;99069.41;4497924;31;33475;-82
2023/06/28 11:24:41;;;;;;;4.40;1.23;;;;;;;24.16;36.89;99067.78;4498946;31;33945;-91
2023/06/28 11:27:13;;;;;;;2.92;1.10;;;;;;;24.19;38.17;99064.16;4490611;31;34535;-83
2023/06/28 11:29:58;;;;;;;4.25;1.35;;;;;;;24.36;34.92;99058.09;4483956;32;34153;-84
2023/06/28 11:32:27;;;;;;;7.37;1.27;;;;;;;24.09;37.60;99063.69;4483564;31;34138;-83
2023/06/28 11:34:57;;;;;;;3.75;0.90;;;;;;;23.76;37.36;99058.94;4486079;31;33194;-88
2023/06/28 11:37:26;;;;;;;3.95;1.00;;;;;;;23.80;39.01;99054.38;4481004;32;33994;-84
2023/06/28 11:39:54;;;;;;;5.28;0.98;;;;;;;24.01;37.53;99050.78;4483078;32;33945;-93
2023/06/28 11:42:21;;;;;;;6.30;1.00;;;;;;;24.21;36.51;99049.94;4483414;31;35499;-93